createdAt,value
2019-05-19T00:00:35.164Z,96.13
2019-05-19T00:01:35.166Z,96.32
2019-05-19T00:02:35.148Z,96.13
2019-05-19T00:03:35.139Z,96.13
2019-05-19T00:04:35.143Z,96.22
2019-05-19T00:05:35.123Z,96.17
2019-05-19T00:06:35.116Z,96.13
2019-05-19T00:07:35.156Z,96.42
2019-05-19T00:08:35.109Z,96.51
2019-05-19T00:09:35.094Z,96.22
2019-05-19T00:10:34.844Z,96.27
2019-05-19T00:11:35.077Z,96.17
2019-05-19T00:12:35.075Z,95.7
2019-05-19T00:13:35.063Z,96.37
2019-05-19T00:14:34.812Z,96.46
2019-05-19T00:15:35.051Z,96.46
2019-05-19T00:16:35.040Z,96.46
2019-05-19T00:17:35.031Z,96.27
2019-05-19T00:18:35.023Z,96.37
2019-05-19T00:19:35.014Z,96.37
2019-05-19T00:20:35.007Z,96.46
2019-05-19T00:22:34.991Z,96.46
2019-05-19T00:23:34.983Z,96.17
2019-05-19T00:24:34.975Z,96.08
2019-05-19T00:25:34.946Z,96.27
2019-05-19T00:26:34.968Z,96.27
2019-05-19T00:27:34.964Z,96.27
2019-05-19T00:28:34.944Z,96.27
2019-05-19T00:29:34.936Z,95.98
2019-05-19T00:30:34.934Z,96.27
2019-05-19T00:31:34.925Z,96.37
2019-05-19T00:32:34.911Z,96.17
2019-05-19T00:33:34.904Z,96.27
2019-05-19T00:34:34.899Z,96.08
2019-05-19T00:35:34.941Z,96.27
2019-05-19T00:36:41.141Z,96.08
2019-05-19T00:37:34.872Z,96.08
2019-05-19T00:38:34.863Z,96.27
2019-05-19T00:39:34.890Z,96.08
2019-05-19T00:40:34.603Z,96.08
2019-05-19T00:41:34.596Z,96.27
2019-05-19T00:42:34.837Z,96.27
2019-05-19T00:43:34.886Z,96.27
2019-05-19T00:44:34.814Z,96.66
2019-05-19T00:45:34.813Z,96.84
2019-05-19T00:46:34.801Z,96.66
2019-05-19T00:47:34.791Z,96.27
2019-05-19T00:48:34.782Z,96.75
2019-05-19T00:49:43.771Z,96.75
2019-05-19T00:50:34.765Z,96.84
2019-05-19T00:51:41.027Z,96.75
2019-05-19T00:52:34.753Z,96.37
2019-05-19T00:53:34.743Z,96.41
2019-05-19T00:54:34.736Z,96.51
2019-05-19T00:55:34.796Z,96.22
2019-05-19T00:56:34.723Z,96.27
2019-05-19T00:57:34.727Z,96.13
2019-05-19T00:58:34.701Z,96.17
2019-05-19T00:59:34.696Z,96.22
2019-05-19T01:00:35.093Z,96.13
2019-05-19T01:01:34.679Z,96.22
2019-05-19T01:02:34.671Z,96.51
2019-05-19T01:03:34.658Z,96.51
2019-05-19T01:04:34.657Z,96.51
2019-05-19T01:05:34.647Z,96.61
2019-05-19T01:06:34.638Z,96.03
2019-05-19T01:07:34.638Z,96.13
2019-05-19T01:08:34.619Z,96.13
2019-05-19T01:09:34.611Z,96.13
2019-05-19T01:10:34.601Z,96.13
2019-05-19T01:11:34.643Z,96.13
2019-05-19T01:12:34.588Z,96.13
2019-05-19T01:13:34.577Z,96.13
2019-05-19T01:14:34.572Z,96.61
2019-05-19T01:15:34.564Z,96.32
2019-05-19T01:16:34.551Z,96.41
2019-05-19T01:17:34.308Z,95.75
2019-05-19T01:18:34.539Z,95.84
2019-05-19T01:19:34.528Z,96.03
2019-05-19T01:20:34.519Z,96.22
2019-05-19T01:21:34.512Z,96.13
2019-05-19T01:22:34.504Z,95.94
2019-05-19T01:23:34.496Z,95.56
2019-05-19T01:24:34.490Z,95.84
2019-05-19T01:25:34.478Z,95.84
2019-05-19T01:26:34.474Z,95.84
2019-05-19T01:27:34.459Z,95.75
2019-05-19T01:28:34.455Z,96.22
2019-05-19T01:29:34.444Z,95.56
2019-05-19T01:30:34.444Z,95.56
2019-05-19T01:31:34.447Z,95.56
2019-05-19T01:32:34.420Z,95.84
2019-05-19T01:33:34.422Z,95.75
2019-05-19T01:34:34.403Z,95.75
2019-05-19T01:35:35.669Z,95.84
2019-05-19T01:36:34.388Z,95.7
2019-05-19T01:37:34.542Z,95.89
2019-05-19T01:38:34.369Z,94.89
2019-05-19T01:39:34.388Z,95.17
2019-05-19T01:40:34.353Z,95.17
2019-05-19T01:41:34.451Z,95.41
2019-05-19T01:42:34.338Z,95.37
2019-05-19T01:43:35.806Z,95.37
2019-05-19T01:44:34.338Z,95.37
2019-05-19T01:45:34.314Z,95.17
2019-05-19T01:46:34.303Z,95.75
2019-05-19T01:47:34.305Z,95.84
2019-05-19T01:48:34.300Z,95.08
2019-05-19T01:49:34.280Z,95.17
2019-05-19T01:50:34.284Z,95.84
2019-05-19T01:51:34.266Z,95.94
2019-05-19T01:52:34.255Z,95.75
2019-05-19T01:53:34.246Z,95.84
2019-05-19T01:54:34.235Z,95.84
2019-05-19T01:55:34.228Z,96.13
2019-05-19T01:56:33.979Z,95.75
2019-05-19T01:57:34.214Z,95.75
2019-05-19T01:58:34.204Z,95.75
2019-05-19T01:59:34.197Z,95.84
2019-05-19T02:00:34.188Z,95.65
2019-05-19T02:01:34.180Z,95.75
2019-05-19T02:02:46.902Z,95.56
2019-05-19T02:03:34.164Z,96.03
2019-05-19T02:04:34.160Z,95.94
2019-05-19T02:05:34.153Z,95.94
2019-05-19T02:06:34.137Z,95.94
2019-05-19T02:07:34.214Z,95.84
2019-05-19T02:08:34.120Z,96.03
2019-05-19T02:09:34.129Z,96.13
2019-05-19T02:10:34.102Z,95.84
2019-05-19T02:11:34.147Z,95.94
2019-05-19T02:12:34.088Z,96.32
2019-05-19T02:13:34.079Z,96.32
2019-05-19T02:14:34.072Z,96.41
2019-05-19T02:15:34.063Z,96.32
2019-05-19T02:16:34.052Z,96.41
2019-05-19T02:17:34.045Z,96.03
2019-05-19T02:18:34.038Z,96.32
2019-05-19T02:19:34.027Z,95.94
2019-05-19T02:20:36.191Z,95.65
2019-05-19T02:21:34.008Z,95.75
2019-05-19T02:22:34.003Z,96.03
2019-05-19T02:23:33.991Z,96.41
2019-05-19T02:24:33.983Z,96.22
2019-05-19T02:25:33.979Z,96.32
2019-05-19T02:26:33.968Z,95.84
2019-05-19T02:27:33.957Z,95.75
2019-05-19T02:28:33.948Z,95.56
2019-05-19T02:29:33.942Z,95.56
2019-05-19T02:30:33.936Z,95.94
2019-05-19T02:31:33.926Z,95.75
2019-05-19T02:32:33.923Z,95.84
2019-05-19T02:33:38.021Z,95.94
2019-05-19T02:34:33.899Z,95.75
2019-05-19T02:35:33.890Z,95.75
2019-05-19T02:36:33.887Z,95.75
2019-05-19T02:37:33.880Z,95.94
2019-05-19T02:38:33.865Z,96.32
2019-05-19T02:39:33.857Z,96.13
2019-05-19T02:40:33.854Z,96.32
2019-05-19T02:41:33.840Z,96.32
2019-05-19T02:42:33.836Z,96.32
2019-05-19T02:43:33.824Z,96.32
2019-05-19T02:44:33.906Z,96.22
2019-05-19T02:45:33.815Z,96.22
2019-05-19T02:46:33.830Z,96.32
2019-05-19T02:47:33.794Z,96.03
2019-05-19T02:48:33.778Z,96.03
2019-05-19T02:49:33.771Z,95.94
2019-05-19T02:50:50.769Z,96.32
2019-05-19T02:51:33.512Z,96.03
2019-05-19T02:52:33.751Z,96.13
2019-05-19T02:53:33.738Z,96.22
2019-05-19T02:54:33.728Z,96.03
2019-05-19T02:55:33.723Z,96.22
2019-05-19T02:56:33.713Z,96.22
2019-05-19T02:57:33.714Z,96.03
2019-05-19T02:58:33.693Z,96.41
2019-05-19T02:59:33.700Z,96.03
2019-05-19T03:00:33.675Z,96.41
2019-05-19T03:01:33.669Z,96.41
2019-05-19T03:02:33.665Z,96.32
2019-05-19T03:03:33.653Z,96.13
2019-05-19T03:04:33.684Z,96.13
2019-05-19T03:05:33.634Z,96.03
2019-05-19T03:06:33.626Z,96.13
2019-05-19T03:07:33.617Z,96.41
2019-05-19T03:08:33.606Z,96.13
2019-05-19T03:09:33.604Z,96.13
2019-05-19T03:10:33.590Z,96.03
2019-05-19T03:11:33.584Z,95.94
2019-05-19T03:12:33.572Z,96.13
2019-05-19T03:13:33.577Z,96.13
2019-05-19T03:14:33.565Z,96.13
2019-05-19T03:15:33.649Z,96.13
2019-05-19T03:16:33.551Z,96.13
2019-05-19T03:17:33.542Z,96.22
2019-05-19T03:18:33.519Z,96.22
2019-05-19T03:19:33.521Z,96.32
2019-05-19T03:20:33.515Z,96.32
2019-05-19T03:21:33.496Z,96.32
2019-05-19T03:22:33.491Z,96.32
2019-05-19T03:23:33.481Z,95.94
2019-05-19T03:24:33.475Z,96.32
2019-05-19T03:25:33.471Z,96.03
2019-05-19T03:26:33.471Z,95.84
2019-05-19T03:27:33.443Z,95.75
2019-05-19T03:28:33.440Z,95.75
2019-05-19T03:29:33.440Z,95.75
2019-05-19T03:30:33.459Z,95.56
2019-05-19T03:31:33.457Z,95.56
2019-05-19T03:32:33.413Z,95.94
2019-05-19T03:33:33.404Z,95.84
2019-05-19T03:34:33.393Z,95.84
2019-05-19T03:35:33.400Z,95.98
2019-05-19T03:36:33.389Z,95.79
2019-05-19T03:37:33.370Z,95.41
2019-05-19T03:38:33.359Z,95.7
2019-05-19T03:39:33.346Z,95.79
2019-05-19T03:40:33.353Z,95.61
2019-05-19T03:41:33.330Z,95.61
2019-05-19T03:42:33.324Z,94.84
2019-05-19T03:43:33.311Z,95.36
2019-05-19T03:44:33.317Z,94.98
2019-05-19T03:45:33.304Z,94.79
2019-05-19T03:46:33.347Z,94.98
2019-05-19T03:47:33.288Z,95.17
2019-05-19T03:48:33.042Z,94.84
2019-05-19T03:49:33.277Z,94.46
2019-05-19T03:50:33.262Z,94.65
2019-05-19T03:51:34.427Z,94.6
2019-05-19T03:52:33.257Z,93.93
2019-05-19T03:53:33.261Z,94.07
2019-05-19T03:54:33.232Z,94.36
2019-05-19T03:55:33.232Z,93.69
2019-05-19T03:56:33.221Z,93.69
2019-05-19T03:57:33.214Z,93.64
2019-05-19T03:58:32.983Z,93.26
2019-05-19T03:59:33.196Z,92.59
2019-05-19T04:00:33.228Z,93.69
2019-05-19T04:01:33.186Z,93.02
2019-05-19T04:02:33.179Z,92.25
2019-05-19T04:03:33.182Z,92.4
2019-05-19T04:04:33.167Z,91.82
2019-05-19T04:05:33.161Z,91.19
2019-05-19T04:06:33.187Z,90.43
2019-05-19T04:07:33.178Z,90.23
2019-05-19T04:08:33.152Z,90.67
2019-05-19T04:09:33.146Z,90.09
2019-05-19T04:10:33.136Z,89.65
2019-05-19T04:11:33.134Z,88.7
2019-05-19T04:12:32.884Z,88.65
2019-05-19T04:13:33.128Z,88.26
2019-05-19T04:14:33.115Z,87.63
2019-05-19T04:15:33.115Z,87.54
2019-05-19T04:16:33.120Z,86.87
2019-05-19T04:17:33.105Z,87.01
2019-05-19T04:18:33.145Z,86.38
2019-05-19T04:19:33.104Z,85.51
2019-05-19T04:20:33.097Z,84.4
2019-05-19T04:21:50.732Z,83.09
2019-05-19T04:22:33.111Z,82.71
2019-05-19T04:23:33.098Z,81.98
2019-05-19T04:24:33.084Z,81.6
2019-05-19T04:25:33.086Z,81.5
2019-05-19T04:26:33.079Z,81.88
2019-05-19T04:27:33.089Z,80.87
2019-05-19T04:28:34.753Z,80.87
2019-05-19T04:29:33.074Z,81.06
2019-05-19T04:30:33.078Z,81.16
2019-05-19T04:31:33.095Z,80.29
2019-05-19T04:32:33.084Z,80.04
2019-05-19T04:33:33.068Z,79.94
2019-05-19T04:34:33.074Z,79.46
2019-05-19T04:35:33.060Z,78.25
2019-05-19T04:36:33.059Z,77.58
2019-05-19T04:37:33.060Z,76.71
2019-05-19T04:38:33.063Z,77.28
2019-05-19T04:39:33.068Z,76.71
2019-05-19T04:40:33.063Z,76.61
2019-05-19T04:41:33.060Z,76.61
2019-05-19T04:42:33.054Z,76.8
2019-05-19T04:43:33.056Z,76.9
2019-05-19T04:44:33.067Z,76.13
2019-05-19T04:45:33.062Z,75.71
2019-05-19T04:46:33.062Z,76.09
2019-05-19T04:47:33.044Z,76.28
2019-05-19T04:48:33.047Z,76.57
2019-05-19T04:49:33.043Z,77.15
2019-05-19T04:50:33.048Z,76.96
2019-05-19T04:51:33.050Z,76.13
2019-05-19T04:52:33.044Z,76.13
2019-05-19T04:53:33.048Z,76.03
2019-05-19T04:54:33.037Z,75.3
2019-05-19T04:55:33.069Z,75.05
2019-05-19T04:56:33.051Z,74.18
2019-05-19T04:57:33.034Z,73.69
2019-05-19T04:58:33.038Z,72.54
2019-05-19T04:59:33.033Z,72.28
2019-05-19T05:00:33.042Z,71.8
2019-05-19T05:01:33.042Z,71.32
2019-05-19T05:02:33.042Z,70.84
2019-05-19T05:03:33.038Z,70.64
2019-05-19T05:04:33.038Z,71.03
2019-05-19T05:05:33.038Z,71.03
2019-05-19T05:06:33.034Z,70.74
2019-05-19T05:07:33.050Z,71.22
2019-05-19T05:08:33.399Z,70.84
2019-05-19T05:09:33.047Z,70.26
2019-05-19T05:10:33.029Z,70.74
2019-05-19T05:11:33.030Z,70.74
2019-05-19T05:12:33.028Z,70.74
2019-05-19T05:13:33.031Z,69.78
2019-05-19T05:14:33.033Z,69.58
2019-05-19T05:15:33.041Z,70.74
2019-05-19T05:16:33.039Z,70.7
2019-05-19T05:17:33.045Z,70.54
2019-05-19T05:18:33.024Z,70.84
2019-05-19T05:19:33.025Z,70.26
2019-05-19T05:20:33.031Z,69.9
2019-05-19T05:21:33.026Z,69.23
2019-05-19T05:22:33.025Z,68.3
2019-05-19T05:23:33.023Z,67.52
2019-05-19T05:24:34.299Z,67.82
2019-05-19T05:25:33.027Z,67.46
2019-05-19T05:26:33.032Z,66.78
2019-05-19T05:27:33.024Z,66.43
2019-05-19T05:28:33.033Z,65.85
2019-05-19T05:29:33.038Z,64.79
2019-05-19T05:30:33.030Z,64.04
2019-05-19T05:31:33.031Z,63.76
2019-05-19T05:32:33.031Z,63.49
2019-05-19T05:33:33.038Z,63.4
2019-05-19T05:34:33.033Z,61.79
2019-05-19T05:35:33.044Z,61.82
2019-05-19T05:36:33.039Z,60.58
2019-05-19T05:37:33.039Z,59.94
2019-05-19T05:38:33.043Z,59
2019-05-19T05:39:33.053Z,57.98
2019-05-19T05:40:33.051Z,56.75
2019-05-19T05:41:33.054Z,55.41
2019-05-19T05:42:34.436Z,54.54
2019-05-19T05:43:33.065Z,54.28
2019-05-19T05:44:33.069Z,53.81
2019-05-19T05:45:33.113Z,52.09
2019-05-19T05:46:33.081Z,51.8
2019-05-19T05:47:33.086Z,50.75
2019-05-19T05:48:33.093Z,49.71
2019-05-19T05:49:32.861Z,49.05
2019-05-19T05:50:33.114Z,47.88
2019-05-19T05:51:33.113Z,47.97
2019-05-19T05:52:41.170Z,47.78
2019-05-19T05:53:33.127Z,47.71
2019-05-19T05:54:33.143Z,47.51
2019-05-19T05:55:33.145Z,47.12
2019-05-19T05:56:33.153Z,46.66
2019-05-19T05:57:33.162Z,46.36
2019-05-19T05:58:33.168Z,44.51
2019-05-19T05:59:33.175Z,44.6
2019-05-19T06:00:33.188Z,45.26
2019-05-19T06:01:33.197Z,45.26
2019-05-19T06:02:33.200Z,44.97
2019-05-19T06:03:33.205Z,45.17
2019-05-19T06:04:32.972Z,44.87
2019-05-19T06:05:33.229Z,44.8
2019-05-19T06:06:33.231Z,44.34
2019-05-19T06:07:35.785Z,43.18
2019-05-19T06:08:33.257Z,41.62
2019-05-19T06:09:33.257Z,41.74
2019-05-19T06:10:33.273Z,41.76
2019-05-19T06:11:33.271Z,41.78
2019-05-19T06:12:33.300Z,41.19
2019-05-19T06:13:33.292Z,41.11
2019-05-19T06:14:33.302Z,40.64
2019-05-19T06:15:33.334Z,39.49
2019-05-19T06:16:33.320Z,39.61
2019-05-19T06:17:33.334Z,38.54
2019-05-19T06:18:33.340Z,37.56
2019-05-19T06:19:33.360Z,37.88
2019-05-19T06:20:33.363Z,38.17
2019-05-19T06:21:33.373Z,38.17
2019-05-19T06:22:33.389Z,37.6
2019-05-19T06:23:33.395Z,36.34
2019-05-19T06:24:33.422Z,35.57
2019-05-19T06:25:33.558Z,34.78
2019-05-19T06:26:33.432Z,34.49
2019-05-19T06:27:33.440Z,34.67
2019-05-19T06:28:33.456Z,34.39
2019-05-19T06:29:33.475Z,33.8
2019-05-19T06:30:33.497Z,33.7
2019-05-19T06:31:33.491Z,33.82
2019-05-19T06:32:33.262Z,33.92
2019-05-19T06:33:33.517Z,33.15
2019-05-19T06:34:33.535Z,33.25
2019-05-19T06:35:33.543Z,32.17
2019-05-19T06:36:33.556Z,31.67
2019-05-19T06:37:33.569Z,32.28
2019-05-19T06:38:33.351Z,31.88
2019-05-19T06:39:33.596Z,31.98
2019-05-19T06:40:33.622Z,31.59
2019-05-19T06:41:33.623Z,31.69
2019-05-19T06:42:33.644Z,31.79
2019-05-19T06:43:33.667Z,31.11
2019-05-19T06:44:33.664Z,31.21
2019-05-19T06:45:33.722Z,31.51
2019-05-19T06:46:33.717Z,31.41
2019-05-19T06:47:33.706Z,30.44
2019-05-19T06:48:33.729Z,30.54
2019-05-19T06:49:33.743Z,30.83
2019-05-19T06:50:33.748Z,30.34
2019-05-19T06:51:33.770Z,30.43
2019-05-19T06:52:33.783Z,29.85
2019-05-19T06:53:33.791Z,29.86
2019-05-19T06:54:33.563Z,29.07
2019-05-19T06:55:34.033Z,29.37
2019-05-19T06:56:33.835Z,29.07
2019-05-19T06:57:33.859Z,29.48
2019-05-19T06:58:33.864Z,29.19
2019-05-19T06:59:33.878Z,29.09
2019-05-19T07:00:33.892Z,28.8
2019-05-19T07:01:33.919Z,29
2019-05-19T07:02:33.923Z,29.2
2019-05-19T07:03:33.940Z,28.91
2019-05-19T07:04:33.999Z,28.92
2019-05-19T07:05:33.980Z,28.44
2019-05-19T07:06:36.621Z,28.06
2019-05-19T07:07:33.999Z,26.57
2019-05-19T07:08:33.777Z,26.28
2019-05-19T07:09:34.099Z,26.08
2019-05-19T07:10:34.047Z,26.76
2019-05-19T07:11:34.070Z,27.14
2019-05-19T07:12:34.074Z,27.72
2019-05-19T07:13:34.095Z,28.02
2019-05-19T07:14:34.121Z,28.31
2019-05-19T07:15:34.127Z,27.52
2019-05-19T07:16:34.142Z,27.72
2019-05-19T07:17:34.179Z,27.04
2019-05-19T07:18:34.170Z,26.55
2019-05-19T07:19:34.184Z,27.13
2019-05-19T07:20:34.202Z,27.72
2019-05-19T07:21:34.228Z,28
2019-05-19T07:22:37.407Z,28.79
2019-05-19T07:23:34.250Z,28.21
2019-05-19T07:24:34.260Z,27.04
2019-05-19T07:25:34.281Z,27.24
2019-05-19T07:26:34.305Z,26.56
2019-05-19T07:27:34.308Z,26.46
2019-05-19T07:28:34.323Z,26.36
2019-05-19T07:29:34.340Z,26.36
2019-05-19T07:30:34.356Z,26.46
2019-05-19T07:31:34.128Z,27.04
2019-05-19T07:32:34.401Z,27.73
2019-05-19T07:33:34.400Z,27.64
2019-05-19T07:34:34.648Z,27.73
2019-05-19T07:35:34.432Z,27.34
2019-05-19T07:36:34.448Z,26.86
2019-05-19T07:37:34.462Z,26.84
2019-05-19T07:38:34.485Z,26.55
2019-05-19T07:39:34.505Z,26.55
2019-05-19T07:40:34.508Z,27.34
2019-05-19T07:41:34.518Z,27.13
2019-05-19T07:42:34.536Z,28.11
2019-05-19T07:43:34.555Z,28.1
2019-05-19T07:44:34.559Z,28.19
2019-05-19T07:45:34.576Z,28.09
2019-05-19T07:46:34.597Z,28.58
2019-05-19T07:47:34.602Z,28.79
2019-05-19T07:48:34.614Z,28.2
2019-05-19T07:49:34.651Z,27.81
2019-05-19T07:50:37.872Z,28
2019-05-19T07:51:34.654Z,28.2
2019-05-19T07:52:34.843Z,28.28
2019-05-19T07:53:44.926Z,28.86
2019-05-19T07:54:34.696Z,29.14
2019-05-19T07:55:34.709Z,29.52
2019-05-19T07:56:34.719Z,30.1
2019-05-19T07:57:34.732Z,30.49
2019-05-19T07:58:34.744Z,30.58
2019-05-19T07:59:34.758Z,30.77
2019-05-19T08:00:34.776Z,30.98
2019-05-19T08:01:34.785Z,30.97
2019-05-19T08:02:34.795Z,30.97
2019-05-19T08:03:34.804Z,31.25
2019-05-19T08:04:36.897Z,31.84
2019-05-19T08:05:34.840Z,31.82
2019-05-19T08:06:34.832Z,31.9
2019-05-19T08:07:34.861Z,32.4
2019-05-19T08:08:35.041Z,32.97
2019-05-19T08:09:34.866Z,33.34
2019-05-19T08:10:34.876Z,34.31
2019-05-19T08:11:34.885Z,34.98
2019-05-19T08:12:36.108Z,35.25
2019-05-19T08:13:34.903Z,35.65
2019-05-19T08:14:36.125Z,35.55
2019-05-19T08:15:34.928Z,35.25
2019-05-19T08:16:34.929Z,35.75
2019-05-19T08:17:56.023Z,36.32
2019-05-19T08:18:34.951Z,36.24
2019-05-19T08:19:34.960Z,35.06
2019-05-19T08:20:34.969Z,34.96
2019-05-19T08:22:34.989Z,35.35
2019-05-19T08:23:35.007Z,34.94
2019-05-19T08:24:35.019Z,35.14
2019-05-19T08:25:35.018Z,35.42
2019-05-19T08:26:35.029Z,35.6
2019-05-19T08:27:35.061Z,36.07
2019-05-19T08:28:35.048Z,36.75
2019-05-19T08:29:35.060Z,37.43
2019-05-19T08:30:36.343Z,37.34
2019-05-19T08:31:35.079Z,37.43
2019-05-19T08:32:35.108Z,36.26
2019-05-19T08:33:35.134Z,37.12
2019-05-19T08:34:35.109Z,37.32
2019-05-19T08:35:35.190Z,36.93
2019-05-19T08:36:35.127Z,36.83
2019-05-19T08:37:35.138Z,36.24
2019-05-19T08:38:35.172Z,36.83
2019-05-19T08:39:35.165Z,36.91
2019-05-19T08:40:35.258Z,37.7
2019-05-19T08:41:35.182Z,37.19
2019-05-19T08:42:35.195Z,37.48
2019-05-19T08:43:35.219Z,37.75
2019-05-19T08:44:35.219Z,37.75
2019-05-19T08:45:35.222Z,37.95
2019-05-19T08:46:35.240Z,38.71
2019-05-19T08:47:35.243Z,38.69
2019-05-19T08:48:35.256Z,38.69
2019-05-19T08:49:35.284Z,38.79
2019-05-19T08:50:35.338Z,39.26
2019-05-19T08:51:35.299Z,39.82
2019-05-19T08:52:35.287Z,40.48
2019-05-19T08:53:35.297Z,41.14
2019-05-19T08:54:36.580Z,42.1
2019-05-19T08:55:35.322Z,43.24
2019-05-19T08:56:37.808Z,44
2019-05-19T08:57:35.345Z,44.65
2019-05-19T08:58:35.331Z,45.8
2019-05-19T08:59:35.367Z,46.48
2019-05-19T09:00:40.441Z,46.75
2019-05-19T09:01:35.350Z,46.94
2019-05-19T09:02:35.357Z,47.89
2019-05-19T09:04:35.364Z,47.98
2019-05-19T09:05:35.377Z,48.74
2019-05-19T09:06:35.377Z,49.7
2019-05-19T09:07:35.381Z,49.97
2019-05-19T09:08:35.389Z,50.07
2019-05-19T09:09:35.395Z,50.07
2019-05-19T09:10:35.142Z,50.16
2019-05-19T09:11:35.506Z,50.26
2019-05-19T09:12:35.468Z,50.52
2019-05-19T09:13:35.424Z,50.33
2019-05-19T09:14:35.392Z,50.82
2019-05-19T09:15:35.395Z,51.3
2019-05-19T09:16:35.417Z,51.2
2019-05-19T09:17:35.402Z,51.4
2019-05-19T09:18:35.400Z,50.89
2019-05-19T09:19:35.404Z,51.01
2019-05-19T09:20:35.401Z,51.3
2019-05-19T09:21:35.442Z,51.2
2019-05-19T09:22:35.414Z,51.78
2019-05-19T09:23:35.405Z,52.08
2019-05-19T09:24:37.231Z,51.78
2019-05-19T09:25:35.410Z,51.98
2019-05-19T09:26:35.438Z,52.56
2019-05-19T09:27:35.412Z,52.17
2019-05-19T09:28:35.415Z,52.46
2019-05-19T09:29:35.410Z,52.56
2019-05-19T09:30:35.413Z,52.46
2019-05-19T09:31:35.413Z,52.17
2019-05-19T09:32:35.424Z,52.49
2019-05-19T09:33:35.423Z,52.17
2019-05-19T09:34:35.425Z,52.36
2019-05-19T09:35:35.424Z,52.49
2019-05-19T09:36:35.416Z,52.2
2019-05-19T09:37:35.417Z,52.58
2019-05-19T09:38:35.497Z,53.07
2019-05-19T09:39:35.420Z,52.58
2019-05-19T09:40:35.423Z,52.49
2019-05-19T09:41:35.424Z,50.94
2019-05-19T09:42:35.442Z,51.42
2019-05-19T09:43:35.424Z,51.9
2019-05-19T09:44:35.424Z,51.32
2019-05-19T09:45:35.437Z,51.04
2019-05-19T09:46:35.427Z,51.13
2019-05-19T09:47:35.482Z,51.04
2019-05-19T09:48:35.498Z,50.94
2019-05-19T09:49:35.433Z,51.32
2019-05-19T09:50:35.432Z,51.32
2019-05-19T09:51:35.429Z,51.81
2019-05-19T09:52:35.429Z,51.52
2019-05-19T09:53:35.438Z,51.32
2019-05-19T09:54:46.572Z,51.72
2019-05-19T09:55:35.431Z,51.81
2019-05-19T09:56:35.200Z,51.72
2019-05-19T09:57:35.430Z,51.06
2019-05-19T09:58:35.437Z,50.87
2019-05-19T09:59:35.433Z,50.09
2019-05-19T10:00:35.438Z,49.8
2019-05-19T10:01:35.435Z,50.07
2019-05-19T10:02:35.472Z,50.45
2019-05-19T10:03:35.457Z,50.65
2019-05-19T10:04:35.440Z,50.84
2019-05-19T10:05:35.441Z,50.74
2019-05-19T10:06:35.442Z,50.09
2019-05-19T10:07:35.441Z,50.09
2019-05-19T10:08:35.440Z,49.9
2019-05-19T10:09:35.443Z,50.29
2019-05-19T10:10:35.445Z,50.48
2019-05-19T10:11:35.465Z,50.09
2019-05-19T10:12:35.441Z,50.09
2019-05-19T10:13:37.749Z,50.19
2019-05-19T10:14:35.447Z,49.7
2019-05-19T10:15:35.444Z,49.99
2019-05-19T10:16:35.446Z,50.09
2019-05-19T10:17:35.453Z,49.51
2019-05-19T10:18:35.450Z,49.05
2019-05-19T10:19:35.451Z,48.37
2019-05-19T10:20:35.453Z,48.37
2019-05-19T10:21:35.451Z,47.6
2019-05-19T10:22:35.975Z,48.08
2019-05-19T10:23:35.452Z,48.08
2019-05-19T10:24:35.455Z,47.89
2019-05-19T10:25:35.454Z,48.18
2019-05-19T10:26:35.455Z,47.91
2019-05-19T10:27:35.457Z,46.84
2019-05-19T10:28:35.465Z,46.09
2019-05-19T10:29:35.458Z,45.8
2019-05-19T10:30:35.461Z,46.38
2019-05-19T10:31:35.477Z,45.89
2019-05-19T10:32:35.472Z,45.41
2019-05-19T10:33:35.469Z,45.14
2019-05-19T10:34:35.476Z,45.34
2019-05-19T10:35:35.468Z,45.45
2019-05-19T10:36:35.478Z,43.9
2019-05-19T10:37:35.471Z,43.54
2019-05-19T10:38:35.474Z,43.05
2019-05-19T10:39:35.479Z,42.46
2019-05-19T10:40:35.483Z,42.66
2019-05-19T10:41:35.505Z,42.76
2019-05-19T10:42:35.497Z,43.05
2019-05-19T10:43:35.487Z,43.24
2019-05-19T10:44:35.532Z,43.26
2019-05-19T10:45:35.490Z,42.97
2019-05-19T10:46:35.494Z,43.36
2019-05-19T10:47:35.528Z,42.8
2019-05-19T10:48:35.525Z,42.11
2019-05-19T10:49:35.502Z,41.93
2019-05-19T10:50:35.505Z,41.14
2019-05-19T10:51:35.554Z,41.05
2019-05-19T10:52:35.515Z,41.34
2019-05-19T10:53:35.517Z,42.02
2019-05-19T10:54:35.517Z,41.93
2019-05-19T10:55:39.147Z,41.93
2019-05-19T10:56:35.523Z,41.73
2019-05-19T10:57:35.546Z,41.24
2019-05-19T10:58:35.529Z,41.34
2019-05-19T10:59:35.533Z,41.14
2019-05-19T11:00:35.535Z,41.34
2019-05-19T11:01:35.545Z,41.14
2019-05-19T11:02:35.548Z,41.14
2019-05-19T11:03:35.546Z,41.34
2019-05-19T11:04:35.555Z,41.36
2019-05-19T11:05:35.553Z,40.85
2019-05-19T11:06:35.557Z,40.85
2019-05-19T11:07:35.560Z,40.56
2019-05-19T11:08:35.568Z,40.85
2019-05-19T11:09:35.566Z,40.95
2019-05-19T11:10:35.568Z,41.53
2019-05-19T11:11:35.573Z,41.34
2019-05-19T11:12:35.584Z,41.13
2019-05-19T11:13:35.580Z,41.42
2019-05-19T11:14:35.587Z,41.32
2019-05-19T11:15:35.590Z,41.3
2019-05-19T11:16:35.636Z,41.1
2019-05-19T11:17:35.590Z,41.2
2019-05-19T11:18:35.597Z,41.49
2019-05-19T11:19:35.360Z,42.18
2019-05-19T11:20:35.625Z,42.18
2019-05-19T11:21:35.599Z,42.18
2019-05-19T11:22:35.601Z,42.36
2019-05-19T11:23:35.607Z,42.76
2019-05-19T11:24:35.607Z,41.88
2019-05-19T11:25:50.581Z,41.78
2019-05-19T11:26:35.615Z,41.69
2019-05-19T11:27:35.615Z,41.59
2019-05-19T11:28:35.626Z,42.18
2019-05-19T11:29:35.621Z,42.36
2019-05-19T11:30:35.691Z,42.08
2019-05-19T11:31:35.631Z,42.56
2019-05-19T11:32:35.634Z,41.69
2019-05-19T11:33:35.656Z,41.69
2019-05-19T11:34:35.638Z,41.69
2019-05-19T11:35:35.643Z,42.08
2019-05-19T11:36:35.646Z,42.27
2019-05-19T11:37:35.642Z,42.27
2019-05-19T11:38:35.664Z,42.85
2019-05-19T11:39:35.645Z,43.12
2019-05-19T11:40:35.649Z,42.66
2019-05-19T11:41:35.655Z,42.64
2019-05-19T11:42:35.677Z,43.51
2019-05-19T11:43:35.656Z,42.05
2019-05-19T11:44:35.753Z,42.93
2019-05-19T11:45:35.660Z,43.2
2019-05-19T11:46:35.788Z,43.59
2019-05-19T11:47:35.671Z,44.07
2019-05-19T11:48:35.690Z,44.56
2019-05-19T11:49:35.677Z,44.85
2019-05-19T11:50:35.674Z,44.83
2019-05-19T11:51:35.693Z,45.02
2019-05-19T11:52:35.680Z,45.41
2019-05-19T11:53:35.678Z,44.92
2019-05-19T11:54:35.687Z,45.02
2019-05-19T11:55:35.683Z,45.7
2019-05-19T11:56:35.688Z,45.89
2019-05-19T11:57:35.692Z,45.97
2019-05-19T11:58:35.709Z,46.26
2019-05-19T11:59:35.691Z,46.53
2019-05-19T12:00:35.693Z,46.92
2019-05-19T12:01:35.692Z,46.82
2019-05-19T12:02:35.694Z,46.53
2019-05-19T12:03:35.746Z,46.92
2019-05-19T12:04:35.843Z,47.5
2019-05-19T12:05:35.746Z,48.27
2019-05-19T12:06:42.159Z,48.27
2019-05-19T12:07:35.705Z,48.66
2019-05-19T12:08:35.706Z,48.47
2019-05-19T12:09:35.717Z,48.47
2019-05-19T12:10:35.707Z,48.37
2019-05-19T12:11:35.709Z,47.89
2019-05-19T12:12:35.709Z,47.6
2019-05-19T12:13:37.511Z,47.98
2019-05-19T12:14:35.715Z,47.6
2019-05-19T12:15:35.711Z,47.11
2019-05-19T12:16:35.712Z,46.92
2019-05-19T12:17:35.712Z,47.5
2019-05-19T12:18:35.717Z,47.79
2019-05-19T12:19:35.720Z,47.98
2019-05-19T12:20:35.744Z,47.89
2019-05-19T12:21:35.718Z,46.55
2019-05-19T12:22:35.719Z,46.84
2019-05-19T12:23:35.719Z,47.03
2019-05-19T12:24:35.719Z,47.33
2019-05-19T12:25:35.723Z,46.55
2019-05-19T12:26:37.371Z,46.16
2019-05-19T12:27:35.726Z,45.61
2019-05-19T12:28:35.726Z,45.21
2019-05-19T12:29:35.742Z,44.92
2019-05-19T12:30:35.732Z,45.41
2019-05-19T12:31:35.728Z,45.21
2019-05-19T12:32:35.773Z,45.31
2019-05-19T12:33:49.607Z,45.62
2019-05-19T12:34:35.731Z,45.53
2019-05-19T12:35:35.735Z,45.24
2019-05-19T12:36:35.735Z,45.43
2019-05-19T12:37:35.735Z,45.24
2019-05-19T12:38:35.742Z,45.62
2019-05-19T12:39:35.741Z,45.17
2019-05-19T12:40:35.742Z,45.07
2019-05-19T12:41:35.505Z,45.45
2019-05-19T12:42:35.747Z,44.87
2019-05-19T12:43:35.750Z,44.58
2019-05-19T12:44:35.751Z,44
2019-05-19T12:45:35.859Z,43.82
2019-05-19T12:46:35.751Z,44.02
2019-05-19T12:47:35.769Z,45.28
2019-05-19T12:48:35.829Z,45.97
2019-05-19T12:49:35.761Z,46.64
2019-05-19T12:50:35.768Z,45.98
2019-05-19T12:51:35.769Z,46.08
2019-05-19T12:52:35.762Z,46.86
2019-05-19T12:53:35.767Z,46.57
2019-05-19T12:54:35.804Z,46.18
2019-05-19T12:55:35.769Z,46.77
2019-05-19T12:56:42.427Z,46.77
2019-05-19T12:57:35.780Z,46.77
2019-05-19T12:58:35.778Z,46.84